Time;durP1;ratioP1;P1;durP2;ratioP2;P2;SDS_P1;SDS_P2;PMS_P1;PMS_P2;Temp;Humidity;BMP_temperature;BMP_pressure;BME280_temperature;BME280_humidity;BME280_pressure;Samples;Min_cycle;Max_cycle;Signal;HPM_P1;HPM_P2
2023/06/06 00:01:20;;;;;;;;;;;;;;;18.97;56.99;96641.88;6133869;29;19933;-63
2023/06/06 00:04:21;;;;;;;;;;;;;;;19.00;57.15;96649.56;6133091;29;20357;-61
2023/06/06 00:07:24;;;;;;;;;;;;;;;19.00;57.15;96647.72;6136986;28;19927;-61
2023/06/06 00:10:28;;;;;;;;;;;;;;;18.88;57.45;96642.81;6124509;29;20397;-61
2023/06/06 00:13:32;;;;;;;;;;;;;;;18.94;57.27;96653.69;6130118;29;20312;-62
2023/06/06 00:16:34;;;;;;;;;;;;;;;19.12;56.99;96650.97;6131125;29;19926;-62
2023/06/06 00:19:35;;;;;;;;;;;;;;;19.04;57.37;96656.25;6134451;29;19926;-61
2023/06/06 00:22:37;;;;;;;;;;;;;;;19.01;57.36;96645.91;6141081;29;20049;-60
2023/06/06 00:25:39;;;;;;;;;;;;;;;18.99;57.44;96647.88;6146478;29;19942;-60
2023/06/06 00:28:39;;;;;;;;;;;;;;;18.94;57.33;96650.16;6135604;29;19933;-61
2023/06/06 00:31:40;;;;;;;;;;;;;;;19.03;57.25;96654.59;6131781;29;20436;-60
2023/06/06 00:34:41;;;;;;;;;;;;;;;19.06;57.16;96656.94;6132900;29;20041;-62
2023/06/06 00:37:42;;;;;;;;;;;;;;;19.07;57.30;96646.09;6130561;29;19930;-62
2023/06/06 00:40:43;;;;;;;;;;;;;;;19.06;57.08;96648.94;6140036;29;19926;-62
2023/06/06 00:43:47;;;;;;;;;;;;;;;19.24;57.03;96647.00;6140788;29;20494;-61
2023/06/06 00:46:48;;;;;;;;;;;;;;;19.13;56.88;96654.47;6142921;29;20065;-61
2023/06/06 00:49:52;;;;;;;;;;;;;;;19.02;57.11;96651.09;6140730;29;20406;-62
2023/06/06 00:52:54;;;;;;;;;;;;;;;19.06;57.22;96648.94;6129349;29;19934;-60
2023/06/06 00:55:57;;;;;;;;;;;;;;;19.14;56.76;96654.31;6130798;29;19933;-61
2023/06/06 00:58:59;;;;;;;;;;;;;;;19.21;56.80;96650.00;6137607;29;19970;-60
2023/06/06 01:02:04;;;;;;;;;;;;;;;19.28;56.38;96643.06;6139364;29;19973;-60
2023/06/06 01:05:08;;;;;;;;;;;;;;;19.27;56.31;96644.03;6132026;29;19934;-60
2023/06/06 01:08:11;;;;;;;;;;;;;;;19.38;56.26;96650.09;6142897;29;20058;-61
2023/06/06 01:11:17;;;;;;;;;;;;;;;19.37;56.29;96641.25;6130185;29;20411;-61
2023/06/06 01:14:29;;;;;;;;;;;;;;;19.43;56.04;96639.78;6131399;29;20411;-61
2023/06/06 01:17:33;;;;;;;;;;;;;;;19.33;56.11;96631.88;6129246;29;20419;-62
2023/06/06 01:20:34;;;;;;;;;;;;;;;19.34;56.11;96619.41;6129741;29;19927;-62
2023/06/06 01:23:36;;;;;;;;;;;;;;;19.34;56.37;96630.06;6129765;29;19966;-61
2023/06/06 01:26:39;;;;;;;;;;;;;;;19.34;56.34;96630.06;6133457;29;20396;-61
2023/06/06 01:29:40;;;;;;;;;;;;;;;19.39;55.91;96630.41;6133272;29;19927;-61
2023/06/06 01:32:44;;;;;;;;;;;;;;;19.25;56.00;96637.22;6131255;29;19986;-61
2023/06/06 01:35:48;;;;;;;;;;;;;;;19.28;56.31;96637.72;6131878;29;19938;-62
2023/06/06 01:38:55;;;;;;;;;;;;;;;19.18;56.29;96645.00;6128661;29;20364;-61
2023/06/06 01:41:57;;;;;;;;;;;;;;;19.14;56.49;96632.16;6126984;29;19982;-61
2023/06/06 01:45:01;;;;;;;;;;;;;;;19.28;56.14;96627.03;6127020;29;19927;-61
2023/06/06 01:48:05;;;;;;;;;;;;;;;19.19;56.33;96635.16;6133263;29;20433;-60
2023/06/06 01:51:06;;;;;;;;;;;;;;;19.35;55.59;96635.25;6133661;29;19934;-61
2023/06/06 01:54:10;;;;;;;;;;;;;;;19.34;55.91;96630.06;6130573;29;19927;-61
2023/06/06 01:57:11;;;;;;;;;;;;;;;19.34;56.01;96630.91;6132524;29;19926;-62
2023/06/06 02:00:15;;;;;;;;;;;;;;;19.24;56.01;96636.34;6136636;29;20014;-61
2023/06/06 02:03:16;;;;;;;;;;;;;;;19.17;55.92;96632.66;6117766;29;20385;-61
2023/06/06 02:06:18;;;;;;;;;;;;;;;19.26;55.85;96634.38;6059488;29;2225317;-61
2023/06/06 02:09:19;;;;;;;;;;;;;;;19.20;56.12;96629.66;6129415;29;19953;-62
2023/06/06 02:12:20;;;;;;;;;;;;;;;19.24;55.92;96619.50;6134815;29;19926;-62
2023/06/06 02:15:25;;;;;;;;;;;;;;;19.17;56.33;96611.31;6127955;29;20412;-61
2023/06/06 02:18:27;;;;;;;;;;;;;;;19.24;56.31;96609.66;6129147;29;20415;-61
2023/06/06 02:21:50;;;;;;;;;;;;;;;19.32;56.24;96608.06;6126703;29;19926;-61
2023/06/06 02:24:52;;;;;;;;;;;;;;;19.46;55.76;96615.44;6130498;29;19933;-61
2023/06/06 02:27:53;;;;;;;;;;;;;;;19.51;55.42;96600.63;6134336;29;19926;-61
2023/06/06 02:30:57;;;;;;;;;;;;;;;19.66;54.99;96587.50;6127378;29;19931;-61
2023/06/06 02:34:00;;;;;;;;;;;;;;;19.83;54.95;96592.88;6133520;29;19926;-61
2023/06/06 02:37:06;;;;;;;;;;;;;;;19.98;54.43;96591.22;6127262;29;19926;-60
2023/06/06 02:40:08;;;;;;;;;;;;;;;20.28;53.59;96599.63;6139504;29;19937;-61
2023/06/06 02:43:09;;;;;;;;;;;;;;;20.34;53.12;96612.31;6131828;28;20389;-61
2023/06/06 02:46:15;;;;;;;;;;;;;;;20.26;53.71;96628.34;6137333;29;19927;-62
2023/06/06 02:49:16;;;;;;;;;;;;;;;20.29;53.38;96652.03;6126800;29;19926;-61
2023/06/06 02:52:20;;;;;;;;;;;;;;;20.09;53.88;96663.03;6132126;29;20499;-61
2023/06/06 02:55:21;;;;;;;;;;;;;;;20.07;53.94;96670.41;6136439;29;20313;-62
2023/06/06 02:58:27;;;;;;;;;;;;;;;19.89;54.46;96650.97;6130014;29;19998;-60
2023/06/06 03:01:31;;;;;;;;;;;;;;;20.19;54.12;96637.00;6139930;29;19926;-61
2023/06/06 03:04:35;;;;;;;;;;;;;;;20.26;53.81;96625.66;6137089;28;19926;-60
2023/06/06 03:07:37;;;;;;;;;;;;;;;20.34;53.49;96628.34;6140794;28;20403;-61
2023/06/06 03:10:38;;;;;;;;;;;;;;;20.56;53.25;96626.88;6136803;29;19927;-63
2023/06/06 03:13:44;;;;;;;;;;;;;;;21.23;51.29;96619.41;6140706;29;19933;-62
2023/06/06 03:16:51;;;;;;;;;;;;;;;21.56;50.48;96616.59;6140406;29;19927;-61
2023/06/06 03:19:52;;;;;;;;;;;;;;;21.90;49.68;96602.88;6135000;29;19926;-60
2023/06/06 03:22:53;;;;;;;;;;;;;;;22.19;49.05;96598.69;6131353;29;20381;-61
2023/06/06 03:25:54;;;;;;;;;;;;;;;22.38;48.77;96592.00;6139858;29;19927;-60
2023/06/06 03:28:58;;;;;;;;;;;;;;;22.48;48.33;96595.28;6139920;29;19926;-61
2023/06/06 03:32:01;;;;;;;;;;;;;;;22.60;48.24;96585.78;6142488;29;19927;-61
2023/06/06 03:35:03;;;;;;;;;;;;;;;22.92;47.35;96588.31;6139628;29;19953;-61
2023/06/06 03:38:05;;;;;;;;;;;;;;;23.22;46.59;96594.56;6135192;28;20301;-61
2023/06/06 03:41:08;;;;;;;;;;;;;;;23.31;46.82;96588.91;6137892;29;19926;-61
2023/06/06 03:44:09;;;;;;;;;;;;;;;23.61;45.83;96591.56;6138299;28;19927;-62
2023/06/06 03:47:10;;;;;;;;;;;;;;;23.63;46.12;96586.81;6139321;29;19937;-62
2023/06/06 03:50:14;;;;;;;;;;;;;;;23.79;45.60;96590.38;6137977;28;20419;-61
2023/06/06 03:53:16;;;;;;;;;;;;;;;23.76;45.77;96583.50;6137834;29;19927;-62
2023/06/06 03:56:17;;;;;;;;;;;;;;;23.88;45.70;96581.16;6140609;29;19927;-61
2023/06/06 03:59:21;;;;;;;;;;;;;;;23.87;45.80;96582.19;6140812;29;20315;-61
2023/06/06 04:02:24;;;;;;;;;;;;;;;23.71;46.37;96581.38;6143402;29;19934;-62
2023/06/06 04:05:25;;;;;;;;;;;;;;;23.77;46.23;96570.91;6124937;29;19926;-61
2023/06/06 04:08:26;;;;;;;;;;;;;;;23.74;46.04;96567.56;6128118;29;19926;-61
2023/06/06 04:11:27;;;;;;;;;;;;;;;23.61;46.20;96566.56;6127409;29;19938;-62
2023/06/06 04:14:30;;;;;;;;;;;;;;;23.46;46.55;96563.91;6126776;29;19926;-61
2023/06/06 04:17:34;;;;;;;;;;;;;;;23.30;46.96;96548.84;6127460;29;19927;-62
2023/06/06 04:20:35;;;;;;;;;;;;;;;23.43;46.79;96548.16;6126047;29;19933;-61
2023/06/06 04:23:40;;;;;;;;;;;;;;;23.57;46.59;96544.63;6134179;29;19930;-61
2023/06/06 04:26:44;;;;;;;;;;;;;;;23.84;46.15;96540.41;6129404;29;19926;-61
2023/06/06 04:29:45;;;;;;;;;;;;;;;23.77;46.16;96544.03;6133296;28;19972;-61
2023/06/06 04:32:48;;;;;;;;;;;;;;;23.71;46.34;96538.41;6138167;29;20021;-61
2023/06/06 04:35:51;;;;;;;;;;;;;;;23.65;46.80;96536.44;6124400;29;19934;-61
2023/06/06 04:39:00;;;;;;;;;;;;;;;23.67;46.78;96539.78;6129089;29;19927;-60
2023/06/06 04:42:05;;;;;;;;;;;;;;;24.09;45.94;96535.50;6131422;29;19927;-60
2023/06/06 04:45:06;;;;;;;;;;;;;;;25.84;42.37;96526.44;6130032;29;20372;-60
2023/06/06 04:48:12;;;;;;;;;;;;;;;27.98;38.60;96538.59;6124409;29;19933;-61
2023/06/06 04:51:14;;;;;;;;;;;;;;;30.13;35.95;96542.47;6123352;29;19926;-62
2023/06/06 04:54:17;;;;;;;;;;;;;;;32.34;32.18;96544.41;6129925;29;19927;-62
2023/06/06 04:57:19;;;;;;;;;;;;;;;34.01;29.56;96540.84;6124464;29;19933;-62
2023/06/06 05:00:21;;;;;;;;;;;;;;;35.53;27.10;96539.59;6130992;29;20439;-62
2023/06/06 05:03:22;;;;;;;;;;;;;;;37.06;24.91;96550.91;6133863;29;19926;-62
2023/06/06 05:06:27;;;;;;;;;;;;;;;37.85;23.75;96533.91;6131909;28;19937;-62
2023/06/06 05:09:30;;;;;;;;;;;;;;;38.93;23.18;96545.06;6146077;28;20453;-62
2023/06/06 05:12:31;;;;;;;;;;;;;;;40.26;21.67;96540.78;6138699;29;20029;-62
2023/06/06 05:15:35;;;;;;;;;;;;;;;41.47;20.48;96539.00;6131489;29;19927;-62
2023/06/06 05:18:38;;;;;;;;;;;;;;;42.72;18.04;96537.69;6139343;29;20025;-62
2023/06/06 05:21:39;;;;;;;;;;;;;;;43.46;18.46;96533.56;6141400;29;19934;-62
2023/06/06 05:24:41;;;;;;;;;;;;;;;44.40;17.36;96542.47;6131053;29;19926;-62
2023/06/06 05:27:42;;;;;;;;;;;;;;;44.59;17.06;96542.16;6129418;29;19926;-62
2023/06/06 05:30:45;;;;;;;;;;;;;;;44.82;17.27;96542.78;6135500;29;19926;-63
2023/06/06 05:33:49;;;;;;;;;;;;;;;45.40;16.73;96538.56;6139589;29;19930;-61
2023/06/06 05:36:52;;;;;;;;;;;;;;;46.57;15.60;96532.47;6135974;28;19934;-62
2023/06/06 05:39:55;;;;;;;;;;;;;;;46.57;15.62;96518.56;6137548;29;20016;-65
2023/06/06 05:42:56;;;;;;;;;;;;;;;46.70;15.80;96517.47;6133617;29;20431;-62
2023/06/06 05:45:58;;;;;;;;;;;;;;;47.71;15.17;96515.38;6137996;29;19927;-62
2023/06/06 05:49:01;;;;;;;;;;;;;;;48.09;14.78;96509.41;6133737;29;19942;-63
2023/06/06 05:52:02;;;;;;;;;;;;;;;48.49;14.87;96515.00;6137156;29;20019;-61
2023/06/06 05:55:04;;;;;;;;;;;;;;;49.04;13.24;96509.78;6136924;29;20463;-63
2023/06/06 05:58:05;;;;;;;;;;;;;;;47.93;14.18;96500.97;6134907;29;19927;-62
2023/06/06 06:01:06;;;;;;;;;;;;;;;47.78;14.34;96493.31;6132110;29;20432;-64
2023/06/06 06:04:09;;;;;;;;;;;;;;;48.35;13.99;96495.06;6134824;28;20320;-62
2023/06/06 06:07:11;;;;;;;;;;;;;;;48.12;13.96;96481.59;6131844;28;20406;-64
2023/06/06 06:10:16;;;;;;;;;;;;;;;48.69;13.66;96476.09;6132119;28;19927;-64
2023/06/06 06:13:17;;;;;;;;;;;;;;;48.96;13.31;96474.47;6132692;28;19938;-63
2023/06/06 06:16:18;;;;;;;;;;;;;;;49.30;13.20;96467.38;6130888;28;20389;-63
2023/06/06 06:19:20;;;;;;;;;;;;;;;48.98;13.54;96467.34;6130884;28;19961;-63
2023/06/06 06:22:24;;;;;;;;;;;;;;;49.39;13.79;96473.56;6133783;28;19945;-63
2023/06/06 06:25:29;;;;;;;;;;;;;;;50.68;12.42;96462.50;6134466;28;20064;-63
2023/06/06 06:28:30;;;;;;;;;;;;;;;50.68;12.79;96467.28;6132541;28;19989;-62
2023/06/06 06:31:31;;;;;;;;;;;;;;;51.23;11.62;96453.06;6130574;28;19926;-63
2023/06/06 06:34:33;;;;;;;;;;;;;;;50.57;12.16;96453.03;6133155;28;19926;-63
2023/06/06 06:37:37;;;;;;;;;;;;;;;49.93;12.77;96440.47;6133654;28;19927;-62
2023/06/06 06:40:42;;;;;;;;;;;;;;;49.93;12.54;96430.09;6132129;28;19949;-63
2023/06/06 06:43:46;;;;;;;;;;;;;;;50.25;12.14;96432.75;6135732;29;20402;-62
2023/06/06 06:46:47;;;;;;;;;;;;;;;50.74;12.15;96437.78;6130797;29;19931;-63
2023/06/06 06:49:50;;;;;;;;;;;;;;;51.16;11.96;96434.94;6126474;29;19926;-62
2023/06/06 06:52:55;;;;;;;;;;;;;;;51.52;11.80;96438.31;6135316;29;19927;-62
2023/06/06 06:55:59;;;;;;;;;;;;;;;51.94;10.98;96442.16;6126321;29;19930;-62
2023/06/06 06:59:01;;;;;;;;;;;;;;;51.65;11.44;96422.91;6133498;29;20021;-63
2023/06/06 07:02:05;;;;;;;;;;;;;;;52.25;10.94;96421.31;6128884;28;19926;-63
2023/06/06 07:05:17;;;;;;;;;;;;;;;51.20;11.61;96421.78;6130022;29;19933;-63
2023/06/06 07:08:20;;;;;;;;;;;;;;;50.83;11.88;96410.34;6137394;29;19934;-63
2023/06/06 07:11:23;;;;;;;;;;;;;;;51.03;11.84;96411.09;6137392;28;20415;-63
2023/06/06 07:14:29;;;;;;;;;;;;;;;51.88;11.56;96404.41;6138489;29;19926;-64
2023/06/06 07:17:35;;;;;;;;;;;;;;;52.83;11.20;96415.19;6139686;29;20383;-63
2023/06/06 07:20:36;;;;;;;;;;;;;;;53.71;10.45;96413.50;6138964;29;19927;-64
2023/06/06 07:23:41;;;;;;;;;;;;;;;54.43;10.40;96411.81;6141508;29;20036;-73
2023/06/06 07:26:44;;;;;;;;;;;;;;;55.08;9.85;96398.66;6139577;29;19981;-65
2023/06/06 07:29:48;;;;;;;;;;;;;;;55.37;9.55;96399.47;6137779;28;19974;-65
2023/06/06 07:32:51;;;;;;;;;;;;;;;55.66;9.87;96398.63;6136609;29;19930;-65
2023/06/06 07:35:54;;;;;;;;;;;;;;;55.99;9.84;96400.16;6141284;29;19965;-64
2023/06/06 07:38:57;;;;;;;;;;;;;;;56.11;9.60;96402.50;6153573;29;19930;-64
2023/06/06 07:41:58;;;;;;;;;;;;;;;56.17;9.23;96397.25;6155992;29;19934;-65
2023/06/06 07:45:04;;;;;;;;;;;;;;;55.30;9.63;96404.34;6138584;29;19926;-65
2023/06/06 07:48:08;;;;;;;;;;;;;;;55.45;9.21;96393.81;6126247;29;19933;-65
2023/06/06 07:51:14;;;;;;;;;;;;;;;52.97;10.65;96380.75;6134540;28;19926;-65
2023/06/06 07:54:20;;;;;;;;;;;;;;;53.30;10.34;96382.63;6133382;28;19927;-65
2023/06/06 07:57:27;;;;;;;;;;;;;;;53.23;10.76;96373.34;6132296;28;19926;-64
2023/06/06 08:00:28;;;;;;;;;;;;;;;51.53;11.46;96361.44;6127193;28;19926;-65
2023/06/06 08:03:29;;;;;;;;;;;;;;;50.01;12.52;96352.75;6132624;29;20399;-65
2023/06/06 08:06:37;;;;;;;;;;;;;;;51.05;11.73;96349.09;6134104;29;19927;-65
2023/06/06 08:09:38;;;;;;;;;;;;;;;52.55;10.91;96339.03;6130405;28;19927;-65
2023/06/06 08:12:39;;;;;;;;;;;;;;;53.40;10.76;96347.41;6124963;29;19927;-65
2023/06/06 08:15:43;;;;;;;;;;;;;;;53.64;10.32;96351.53;6125964;29;19934;-65
2023/06/06 08:18:46;;;;;;;;;;;;;;;53.21;10.86;96328.78;6132025;28;19923;-64
2023/06/06 08:21:52;;;;;;;;;;;;;;;52.61;11.01;96324.25;6130903;28;19926;-64
2023/06/06 08:24:55;;;;;;;;;;;;;;;52.32;10.99;96311.94;6130279;28;19927;-65
2023/06/06 08:28:01;;;;;;;;;;;;;;;52.96;11.06;96303.28;6132979;28;20429;-65
2023/06/06 08:31:03;;;;;;;;;;;;;;;53.42;10.71;96299.19;6131549;28;19927;-64
2023/06/06 08:34:07;;;;;;;;;;;;;;;53.60;10.34;96311.34;6130561;28;19931;-64
2023/06/06 08:37:08;;;;;;;;;;;;;;;53.66;10.70;96297.69;6130312;28;20017;-65
2023/06/06 08:40:10;;;;;;;;;;;;;;;53.80;10.53;96292.97;6125278;29;19934;-65
2023/06/06 08:43:14;;;;;;;;;;;;;;;52.99;10.61;96270.78;6128634;29;19926;-65
2023/06/06 08:46:16;;;;;;;;;;;;;;;52.72;11.00;96273.81;6134156;29;19927;-64
2023/06/06 08:49:18;;;;;;;;;;;;;;;52.64;10.92;96266.50;6128524;29;20077;-65
2023/06/06 08:52:21;;;;;;;;;;;;;;;52.73;10.89;96258.56;6137266;29;20411;-64
2023/06/06 08:55:27;;;;;;;;;;;;;;;52.66;10.78;96241.63;6130542;29;19926;-65
2023/06/06 08:58:29;;;;;;;;;;;;;;;52.72;10.88;96212.03;6129244;29;20450;-67
2023/06/06 09:01:31;;;;;;;;;;;;;;;52.85;10.75;96204.06;6128352;29;20006;-65
2023/06/06 09:04:33;;;;;;;;;;;;;;;52.50;10.79;96189.38;6127463;29;20324;-65
2023/06/06 09:07:40;;;;;;;;;;;;;;;51.86;11.28;96186.75;6136109;29;19926;-64
2023/06/06 09:10:43;;;;;;;;;;;;;;;51.94;11.02;96176.41;6133017;29;19927;-64
2023/06/06 09:13:45;;;;;;;;;;;;;;;51.43;11.20;96177.84;6128327;29;20302;-65
2023/06/06 09:16:50;;;;;;;;;;;;;;;51.76;11.11;96169.84;6133691;28;19931;-65
2023/06/06 09:19:51;;;;;;;;;;;;;;;52.20;10.88;96169.03;6133881;28;20094;-64
2023/06/06 09:23:00;;;;;;;;;;;;;;;51.81;11.16;96161.03;6135130;28;19931;-65
2023/06/06 09:26:16;;;;;;;;;;;;;;;48.90;12.80;96129.59;6138932;28;19926;-64
2023/06/06 09:29:17;;;;;;;;;;;;;;;45.57;14.82;96111.75;6136325;28;19930;-65
2023/06/06 09:32:26;;;;;;;;;;;;;;;43.53;16.19;96096.25;6134071;28;19927;-65
2023/06/06 09:35:31;;;;;;;;;;;;;;;43.18;16.69;96087.22;6131932;28;19934;-65
2023/06/06 09:38:33;;;;;;;;;;;;;;;42.19;17.71;96073.97;6133368;28;20025;-65
2023/06/06 09:41:47;;;;;;;;;;;;;;;41.16;18.75;96055.78;6134283;28;19926;-65
2023/06/06 09:44:48;;;;;;;;;;;;;;;39.84;19.60;96041.16;6136503;28;19926;-65
2023/06/06 09:47:49;;;;;;;;;;;;;;;39.38;19.83;96014.50;6132681;28;19937;-65
2023/06/06 09:50:54;;;;;;;;;;;;;;;38.60;20.58;96001.25;6132659;28;19926;-65
2023/06/06 09:53:58;;;;;;;;;;;;;;;37.76;21.58;95976.31;6135637;28;19926;-64
2023/06/06 09:56:59;;;;;;;;;;;;;;;37.25;22.27;95971.44;6133288;28;19937;-65
2023/06/06 10:00:10;;;;;;;;;;;;;;;36.54;22.85;95953.75;6135527;28;20406;-66
2023/06/06 10:03:22;;;;;;;;;;;;;;;36.38;22.87;95953.06;6140971;28;19930;-66
2023/06/06 10:06:33;;;;;;;;;;;;;;;36.68;22.33;95968.44;6134237;28;20300;-66
2023/06/06 10:09:34;;;;;;;;;;;;;;;36.17;23.13;95985.25;6135234;28;19926;-65
2023/06/06 10:12:38;;;;;;;;;;;;;;;35.60;24.58;95981.97;6134447;28;19931;-75
2023/06/06 10:15:40;;;;;;;;;;;;;;;34.75;25.80;95993.63;6134250;28;20411;-64
2023/06/06 10:18:42;;;;;;;;;;;;;;;33.41;30.13;95999.03;6132042;28;19930;-65
2023/06/06 10:21:44;;;;;;;;;;;;;;;30.38;34.50;95972.34;6134945;28;19936;-65
2023/06/06 10:24:48;;;;;;;;;;;;;;;28.30;38.18;95967.72;6134206;28;19937;-65
2023/06/06 10:27:54;;;;;;;;;;;;;;;27.98;39.17;95976.13;6132706;28;19933;-64
2023/06/06 10:31:03;;;;;;;;;;;;;;;28.62;38.04;95977.19;6134840;28;20005;-65
2023/06/06 10:34:07;;;;;;;;;;;;;;;29.36;37.98;95971.25;6136768;28;19926;-64
2023/06/06 10:37:19;;;;;;;;;;;;;;;28.19;43.37;95978.31;6133651;28;19933;-66
2023/06/06 10:40:23;;;;;;;;;;;;;;;26.17;51.24;95986.38;6137038;29;19926;-66
2023/06/06 10:43:33;;;;;;;;;;;;;;;25.19;54.21;95995.56;6129889;29;20413;-66
2023/06/06 10:46:34;;;;;;;;;;;;;;;23.57;52.44;95980.66;6126457;29;19926;-65
2023/06/06 10:49:35;;;;;;;;;;;;;;;22.49;53.89;95969.59;6131686;29;19927;-65
2023/06/06 10:52:45;;;;;;;;;;;;;;;22.17;54.79;95963.81;6126815;29;19927;-65
2023/06/06 10:55:47;;;;;;;;;;;;;;;22.18;54.19;95957.44;6134513;29;19931;-64
2023/06/06 10:58:48;;;;;;;;;;;;;;;22.61;52.60;95965.34;6132362;29;19927;-64
2023/06/06 11:01:49;;;;;;;;;;;;;;;23.10;52.83;95966.28;6125917;29;20036;-64
2023/06/06 11:04:58;;;;;;;;;;;;;;;23.16;52.33;95984.25;6122961;29;20074;-66
2023/06/06 11:08:02;;;;;;;;;;;;;;;23.12;52.91;96030.47;6133670;29;19926;-66
2023/06/06 11:11:15;;;;;;;;;;;;;;;23.01;58.98;96039.88;6127836;28;20336;-64
2023/06/06 11:14:24;;;;;;;;;;;;;;;22.14;64.65;95993.66;6125742;29;19926;-63
2023/06/06 11:17:41;;;;;;;;;;;;;;;21.62;70.24;96029.59;6135002;28;20400;-63
2023/06/06 11:20:46;;;;;;;;;;;;;;;21.53;73.25;96070.88;6133824;28;19926;-63
2023/06/06 11:23:46;;;;;;;;;;;;;;;21.14;73.85;96079.19;6132996;28;19930;-63
2023/06/06 11:26:51;;;;;;;;;;;;;;;21.04;76.76;96085.66;6127865;28;19965;-63
2023/06/06 11:43:06;;;;;;;22.63;16.20;;;;;;;22.05;79.30;96083.22;6293215;27;1474104;-66
2023/06/06 11:46:13;;;;;;;22.40;15.18;;;;;;;22.04;80.44;96091.44;6327731;28;20031;-66
2023/06/06 11:49:16;;;;;;;23.60;15.38;;;;;;;21.98;80.22;96111.78;6327438;28;20043;-68
2023/06/06 11:52:20;;;;;;;19.08;13.48;;;;;;;22.05;80.92;96101.13;6324218;28;20074;-67
2023/06/06 11:55:36;;;;;;;24.38;14.57;;;;;;;22.30;79.60;96102.44;6325859;28;20601;-68
2023/06/06 11:58:41;;;;;;;18.92;14.07;;;;;;;22.57;79.42;96091.97;6325930;28;20123;-69
2023/06/06 12:01:49;;;;;;;17.60;13.35;;;;;;;22.81;77.25;96099.56;6326493;28;20040;-68
2023/06/06 12:04:50;;;;;;;21.83;13.68;;;;;;;22.89;75.00;96085.19;6325572;28;20035;-67
2023/06/06 12:07:59;;;;;;;22.92;13.55;;;;;;;22.75;75.04;96078.91;6324498;28;20274;-67
2023/06/06 12:11:31;;;;;;;28.30;14.48;;;;;;;22.85;74.79;96082.06;6323858;28;20040;-67
2023/06/06 12:14:34;;;;;;;29.05;13.75;;;;;;;22.80;76.36;96057.69;6324742;28;20060;-68
2023/06/06 12:17:36;;;;;;;24.13;13.38;;;;;;;23.33;76.18;96085.91;6325571;28;20481;-67
2023/06/06 12:20:42;;;;;;;25.92;14.45;;;;;;;23.35;75.01;96059.69;6326255;28;20044;-69
2023/06/06 12:23:47;;;;;;;23.13;13.32;;;;;;;23.69;71.36;96101.75;6326353;28;20040;-69
2023/06/06 12:26:53;;;;;;;21.27;13.32;;;;;;;23.77;70.34;96088.19;6324523;28;20031;-68
2023/06/06 12:29:56;;;;;;;15.35;11.10;;;;;;;23.83;68.72;96091.94;6306959;28;20086;-70
2023/06/06 12:33:04;;;;;;;11.43;9.38;;;;;;;23.91;68.69;96097.94;6325889;28;20062;-66
2023/06/06 12:36:15;;;;;;;14.25;10.75;;;;;;;23.96;67.35;96087.44;6324198;28;20107;-69
2023/06/06 12:39:17;;;;;;;16.50;13.15;;;;;;;23.82;66.66;96080.38;6317667;28;20048;-68
2023/06/06 12:42:21;;;;;;;17.10;12.77;;;;;;;23.65;67.34;96068.28;6307560;28;20060;-70
2023/06/06 12:45:24;;;;;;;18.50;13.50;;;;;;;23.62;67.25;96058.78;6308266;28;20048;-69
2023/06/06 12:48:28;;;;;;;15.95;12.27;;;;;;;23.70;69.42;96055.09;6303304;28;20498;-67
2023/06/06 12:51:37;;;;;;;16.85;12.45;;;;;;;23.96;68.02;96070.47;6300646;28;20131;-68
2023/06/06 12:54:42;;;;;;;16.30;12.75;;;;;;;24.03;67.26;96081.25;6305010;28;20189;-68
2023/06/06 12:57:47;;;;;;;16.10;12.75;;;;;;;24.04;66.83;96078.38;6301929;28;20032;-68
2023/06/06 13:00:57;;;;;;;16.88;12.55;;;;;;;24.01;66.16;96059.97;6301722;28;20090;-65
2023/06/06 13:04:04;;;;;;;15.70;12.63;;;;;;;24.01;67.04;96035.78;6309231;28;20044;-64
2023/06/06 13:07:11;;;;;;;13.88;10.88;;;;;;;24.08;66.43;96036.59;6300138;28;20049;-67
2023/06/06 13:10:20;;;;;;;13.38;11.85;;;;;;;24.13;65.86;96034.13;6300232;28;20491;-65
2023/06/06 13:13:23;;;;;;;13.35;10.50;;;;;;;24.08;66.82;96028.53;6295932;28;20431;-65
2023/06/06 13:16:30;;;;;;;14.88;10.65;;;;;;;24.13;65.91;96027.94;6308517;28;20032;-65
2023/06/06 13:19:32;;;;;;;13.45;10.52;;;;;;;24.08;66.04;96020.47;6297736;28;20403;-66
2023/06/06 13:22:38;;;;;;;15.10;11.70;;;;;;;24.02;66.05;96015.91;6297295;28;20040;-65
2023/06/06 13:25:39;;;;;;;13.95;10.48;;;;;;;23.93;65.82;96009.91;6283628;28;20037;-65
2023/06/06 13:28:46;;;;;;;13.93;10.20;;;;;;;23.88;64.75;96003.50;6297446;28;20067;-65
2023/06/06 13:31:49;;;;;;;15.50;11.43;;;;;;;23.82;65.40;95993.56;6297443;28;20040;-65
2023/06/06 13:34:53;;;;;;;12.65;9.45;;;;;;;23.79;66.70;95989.44;6303646;28;20048;-66
2023/06/06 13:37:54;;;;;;;12.40;9.57;;;;;;;23.87;65.29;95985.75;6295324;28;20055;-66
2023/06/06 13:40:57;;;;;;;11.57;8.27;;;;;;;23.91;62.54;95997.72;6300252;28;20040;-67
2023/06/06 13:44:01;;;;;;;10.20;7.03;;;;;;;23.77;61.41;96002.22;6300875;28;20949;-65
2023/06/06 13:47:05;;;;;;;8.77;6.63;;;;;;;23.71;60.57;96003.88;6301178;28;20044;-65
2023/06/06 13:50:10;;;;;;;9.55;7.20;;;;;;;23.77;59.30;96015.66;6294979;28;20047;-64
2023/06/06 13:53:14;;;;;;;7.90;6.53;;;;;;;23.64;60.23;96016.44;6293236;28;20049;-64
2023/06/06 13:56:22;;;;;;;9.15;6.85;;;;;;;23.63;60.59;96022.00;6300971;28;20051;-65
2023/06/06 13:59:24;;;;;;;13.57;7.00;;;;;;;23.55;60.39;96028.38;6306971;28;20558;-65
2023/06/06 14:02:30;;;;;;;10.50;9.35;;;;;;;23.56;59.56;96032.72;6299466;28;20047;-65
2023/06/06 14:05:31;;;;;;;13.98;8.90;;;;;;;23.52;59.65;96036.81;6295834;28;20059;-66
2023/06/06 14:08:33;;;;;;;16.30;9.73;;;;;;;23.44;60.05;96035.16;6292986;28;20047;-64
2023/06/06 14:11:38;;;;;;;11.55;8.30;;;;;;;23.31;60.06;96030.56;6301574;28;20040;-66
2023/06/06 14:14:42;;;;;;;10.75;8.27;;;;;;;23.38;60.16;96040.50;6295632;28;20392;-65
2023/06/06 14:17:49;;;;;;;12.07;9.88;;;;;;;23.38;60.18;96037.81;6305351;28;20055;-65
2023/06/06 14:21:10;;;;;;;11.27;8.95;;;;;;;23.31;60.58;96041.28;6298336;28;20056;-66
2023/06/06 14:24:16;;;;;;;;;;;;;;;23.51;60.59;96029.81;6302227;28;20036;-66
2023/06/06 14:27:18;;;;;;;14.85;11.05;;;;;;;23.43;61.32;96029.97;6300402;28;19923;-65
2023/06/06 14:30:24;;;;;;;13.50;11.45;;;;;;;23.29;62.01;96021.03;6294591;28;20522;-65
2023/06/06 14:33:26;;;;;;;13.35;9.95;;;;;;;23.34;61.47;96023.13;6295718;28;20056;-66
2023/06/06 14:36:27;;;;;;;17.77;11.38;;;;;;;23.45;61.26;96019.88;6301628;28;20044;-65
2023/06/06 14:39:29;;;;;;;34.75;15.75;;;;;;;23.47;61.19;96029.41;6297534;28;20411;-65
2023/06/06 14:42:30;;;;;;;32.88;14.88;;;;;;;23.45;61.19;96026.06;6300441;28;20056;-65
2023/06/06 14:45:32;;;;;;;32.08;13.57;;;;;;;23.38;61.13;96024.38;6301849;28;20040;-65
2023/06/06 14:48:39;;;;;;;16.08;9.77;;;;;;;23.19;61.53;96016.06;6303639;28;20055;-69
2023/06/06 14:51:42;;;;;;;19.08;11.27;;;;;;;23.17;60.94;96012.75;6300847;28;20477;-67
2023/06/06 14:54:47;;;;;;;15.65;9.05;;;;;;;23.05;60.51;96014.34;6303894;28;20138;-65
2023/06/06 14:57:52;;;;;;;12.32;8.57;;;;;;;22.97;60.26;96022.53;6310051;28;20049;-66
2023/06/06 15:00:54;;;;;;;13.95;9.18;;;;;;;22.88;60.34;96034.44;6307130;28;20051;-67
2023/06/06 15:03:55;;;;;;;10.30;7.88;;;;;;;22.77;60.71;96028.56;6304727;28;20036;-65
2023/06/06 15:06:57;;;;;;;12.23;8.93;;;;;;;22.85;60.62;96030.28;6301016;28;20123;-64
2023/06/06 15:10:01;;;;;;;9.85;7.65;;;;;;;22.86;60.16;96034.63;6306428;28;20044;-67
2023/06/06 15:13:08;;;;;;;10.30;7.70;;;;;;;22.78;60.13;96038.28;6299652;28;20153;-64
2023/06/06 15:16:11;;;;;;;12.45;8.13;;;;;;;22.67;60.10;96041.50;6298463;28;20067;-65
2023/06/06 15:19:15;;;;;;;12.70;8.85;;;;;;;22.48;60.87;96052.91;6300441;28;20495;-66
2023/06/06 15:22:17;;;;;;;16.65;9.52;;;;;;;22.42;61.06;96060.72;6306428;28;20687;-74
2023/06/06 15:25:24;;;;;;;12.63;9.45;;;;;;;22.10;61.52;96070.06;6305507;28;20517;-70
2023/06/06 15:28:28;;;;;;;13.68;8.68;;;;;;;22.00;61.92;96079.44;6303649;28;20044;-64
2023/06/06 15:31:29;;;;;;;15.60;9.93;;;;;;;21.74;62.37;96062.06;6303170;28;20051;-65
2023/06/06 15:34:32;;;;;;;13.98;9.95;;;;;;;21.73;63.09;96084.50;6297503;28;20049;-65
2023/06/06 15:37:37;;;;;;;14.25;10.57;;;;;;;21.55;63.49;96086.75;6306948;28;20127;-64
2023/06/06 15:40:46;;;;;;;16.65;10.70;;;;;;;21.56;63.86;96099.13;6299230;28;20044;-65